If you wish to contribute or participate in the discussions about articles you are invited to join SKYbrary as a registered user

 Actions

Châlons-Vatry Air Base

From SKYbrary Wiki

LFOK
Airport
ICAO: LFOK – IATA: XCR
Summary
Name Châlons-Vatry Air Base
Region Europe
Territory France FR.gif
Location , Champagne-Ardenne
Serving Chalons
Elevation 178.918 m
587 ft
587 ft178.918 m
Type medium airport
Coordinates 48° 46' 33.86" N, 4° 11' 4.17" E
Runways
Designator Length Width Surface ROPS
10/28 3860 m12,664.042 ft
45 m147.638 ft
CON yes/yes


METAR
Observation LFOK 220930Z AUTO VRB03KT CAVOK 27/11 Q1025 NOSIG
Station Chalons-Vatry
Date/Time 22 July 2019 09:30:00
Wind direction °
Wind speed 03 kts
Lowest cloud amount clouds and visibility OK
Temperature 27°C
Dew point 11°C
Humidity 36%
QNH 1025 hPa
Weather condition n/a